Sesena, Spain
Current Conditions -  °F | °C
As of 1:00 PM on Thursday 27 Nov 2014 (Local Time) from LEGT Reporting Station
Light Rain Light Rain  
Wind Chill: 50°   Ceiling: 1500
Heat Index: 50°   Visibility: 4mi
Dew Point: 48°   Wind: 7mph
Humidity: 94%   Direction: 150°SSE
Pressure: 29.56"   Gusts: NA
Location:  40.1°N, 3.7°W
Report Text: LEGT 271200Z 15006KT 090V180 7000 -RA SCT007 BKN015 OVC030 10/09 Q1001
Loading
Personal Weather Stations






























Interactive Weather Map New forecast layout! Learn more

10-Day Weather Forecast

Advertisements
Track Severe Weather on mobile